Time;durP1;ratioP1;P1;durP2;ratioP2;P2;SDS_P1;SDS_P2;PMS_P1;PMS_P2;Temp;Humidity;BMP_temperature;BMP_pressure;BME280_temperature;BME280_humidity;BME280_pressure;Samples;Min_cycle;Max_cycle;Signal;HPM_P1;HPM_P2
2023/06/16 00:01:08;;;;;;;9.60;3.60;;;;;;;19.21;72.31;98936.17;81961;1296;3011295;-63
2023/06/16 00:03:36;;;;;;;6.80;3.70;;;;;;;19.03;72.60;98937.42;80684;1296;3068448;-62
2023/06/16 00:06:29;;;;;;;9.10;4.10;;;;;;;19.01;72.94;98938.20;81957;1296;3018291;-63
2023/06/16 00:08:57;;;;;;;7.50;4.30;;;;;;;18.74;73.69;98937.49;80666;1296;3050421;-62
2023/06/16 00:11:25;;;;;;;6.40;4.00;;;;;;;18.57;74.40;98937.80;81944;1296;3012512;-62
2023/06/16 00:13:55;;;;;;;13.90;3.90;;;;;;;18.45;75.14;98935.89;81372;1299;3011515;-62
2023/06/16 00:16:23;;;;;;;14.40;4.40;;;;;;;18.29;75.78;98930.58;81963;1297;3011615;-62
2023/06/16 00:18:51;;;;;;;9.40;3.20;;;;;;;18.25;76.09;98926.77;81911;1297;3011176;-62
2023/06/16 00:21:37;;;;;;;6.20;3.20;;;;;;;18.69;74.92;98929.73;80670;1295;3052125;-62
2023/06/16 00:24:06;;;;;;;8.00;3.60;;;;;;;19.06;72.75;98932.64;80689;1295;3056585;-63
2023/06/16 00:26:32;;;;;;;9.30;3.60;;;;;;;18.89;73.31;98935.52;81905;1296;3012625;-63
2023/06/16 00:28:59;;;;;;;11.50;4.80;;;;;;;18.72;74.04;98932.96;81914;1296;3011305;-63
2023/06/16 00:31:27;;;;;;;14.60;4.60;;;;;;;18.54;74.82;98935.02;80618;1297;3026657;-63
2023/06/16 00:33:53;;;;;;;8.50;4.40;;;;;;;18.40;75.56;98935.49;81949;1296;3012608;-63
2023/06/16 00:36:20;;;;;;;12.70;4.30;;;;;;;18.33;75.77;98930.53;81932;1295;3011195;-63
2023/06/16 00:38:48;;;;;;;8.40;4.60;;;;;;;18.20;76.40;98929.02;80687;1296;3027074;-63
2023/06/16 00:41:14;;;;;;;10.40;3.80;;;;;;;18.18;76.59;98925.65;81942;1296;3012516;-63
2023/06/16 00:43:42;;;;;;;8.30;3.00;;;;;;;18.12;76.79;98927.83;81873;1297;3011420;-62
2023/06/16 00:46:16;;;;;;;7.10;3.20;;;;;;;18.63;75.22;98924.87;80632;1296;3052862;-63
2023/06/16 00:49:29;;;;;;;7.60;3.50;;;;;;;19.13;73.02;98921.45;79958;1303;3011457;-62
2023/06/16 00:51:55;;;;;;;6.60;3.30;;;;;;;19.13;72.80;98921.25;78943;1301;3021319;-62
2023/06/16 00:54:22;;;;;;;10.80;4.50;;;;;;;18.96;73.22;98928.20;78984;1303;3011516;-62
2023/06/16 00:56:51;;;;;;;7.60;3.80;;;;;;;18.71;74.21;98927.03;77758;1306;3026534;-62
2023/06/16 00:59:18;;;;;;;12.10;4.00;;;;;;;18.53;75.02;98927.27;79122;1299;3013528;-62
2023/06/16 01:01:48;;;;;;;9.00;4.00;;;;;;;18.35;76.00;98926.58;76974;1300;3012132;-63
2023/06/16 01:04:17;;;;;;;7.70;3.60;;;;;;;18.18;76.52;98928.50;78087;1301;3049269;-62
2023/06/16 01:06:48;;;;;;;7.90;2.40;;;;;;;18.08;77.45;98927.56;79293;1297;3011873;-63
2023/06/16 01:09:26;;;;;;;10.70;3.80;;;;;;;18.62;75.64;98929.58;78082;1301;3050105;-62
2023/06/16 01:12:07;;;;;;;4.60;2.70;;;;;;;19.02;73.82;98928.10;78003;1297;3052934;-62
2023/06/16 01:15:07;;;;;;;8.10;3.50;;;;;;;19.08;73.19;98928.90;78144;1302;3052164;-62
2023/06/16 01:17:43;;;;;;;5.50;3.50;;;;;;;18.88;73.63;98929.75;78065;1303;3068887;-62
2023/06/16 01:20:33;;;;;;;8.40;4.30;;;;;;;18.54;75.05;98936.15;78038;1301;3050293;-62
2023/06/16 01:23:06;;;;;;;10.30;3.50;;;;;;;18.43;75.02;98928.30;78072;1298;3057135;-62
2023/06/16 01:25:33;;;;;;;8.90;4.30;;;;;;;18.30;75.33;98926.05;79260;1297;3011627;-62
2023/06/16 01:28:01;;;;;;;8.90;3.70;;;;;;;18.17;75.95;98931.23;78047;1297;3052136;-62
2023/06/16 01:30:28;;;;;;;6.00;2.40;;;;;;;18.12;76.29;98927.36;79201;1298;3018674;-62
2023/06/16 01:32:56;;;;;;;12.30;2.70;;;;;;;18.61;75.17;98924.96;79331;1294;3011670;-63
2023/06/16 01:35:25;;;;;;;5.20;2.80;;;;;;;19.17;73.20;98925.27;78104;1299;3068052;-63
2023/06/16 01:37:53;;;;;;;7.80;3.30;;;;;;;19.16;72.49;98924.48;79234;1300;3013574;-62
2023/06/16 01:40:20;;;;;;;8.30;3.30;;;;;;;19.00;73.04;98928.83;79337;1294;3011948;-63
2023/06/16 01:42:49;;;;;;;7.30;3.40;;;;;;;18.83;73.31;98930.92;78076;1294;3053816;-62
2023/06/16 01:45:16;;;;;;;10.60;3.60;;;;;;;18.64;73.72;98929.33;79355;1300;3012766;-62
2023/06/16 01:47:43;;;;;;;11.30;4.80;;;;;;;18.41;75.12;98931.61;79292;1297;3011610;-62
2023/06/16 01:50:12;;;;;;;9.20;4.30;;;;;;;18.27;75.32;98934.52;78088;1300;3068747;-62
2023/06/16 01:52:39;;;;;;;6.10;2.40;;;;;;;18.10;76.59;98934.49;79371;1295;3013313;-62
2023/06/16 01:55:07;;;;;;;7.00;3.00;;;;;;;18.63;75.34;98935.47;79305;1294;3011937;-63
2023/06/16 01:57:35;;;;;;;5.60;2.90;;;;;;;19.12;73.22;98925.80;78040;1294;3054207;-62
2023/06/16 02:00:10;;;;;;;8.60;3.30;;;;;;;19.19;72.52;98928.33;79340;1300;3020731;-62
2023/06/16 02:02:50;;;;;;;7.10;3.30;;;;;;;18.97;72.95;98932.17;78057;1300;3054495;-62
2023/06/16 02:05:22;;;;;;;7.90;3.90;;;;;;;18.72;73.88;98929.77;78197;1295;3067661;-62
2023/06/16 02:07:49;;;;;;;8.30;3.80;;;;;;;18.54;74.48;98931.63;79415;1294;3013809;-62
2023/06/16 02:10:19;;;;;;;7.20;4.10;;;;;;;18.40;74.95;98931.11;78135;1297;3056853;-62
2023/06/16 02:12:47;;;;;;;9.20;4.00;;;;;;;18.27;75.36;98931.13;79377;1294;3013083;-62
2023/06/16 02:15:20;;;;;;;4.70;2.40;;;;;;;18.19;75.79;98936.52;78848;1297;3011753;-63
2023/06/16 02:17:50;;;;;;;8.80;3.30;;;;;;;18.73;74.55;98932.54;79365;1294;3011919;-62
2023/06/16 02:20:18;;;;;;;12.40;3.00;;;;;;;19.11;72.91;98936.25;78183;1300;3052383;-62
2023/06/16 02:22:44;;;;;;;10.50;3.20;;;;;;;19.16;72.23;98933.71;79447;1299;3012894;-62
2023/06/16 02:25:11;;;;;;;9.60;3.50;;;;;;;19.06;72.67;98936.56;79340;1294;3011573;-62
2023/06/16 02:27:40;;;;;;;6.40;3.40;;;;;;;18.88;73.22;98941.43;78173;1298;3027780;-62
2023/06/16 02:30:13;;;;;;;11.30;4.60;;;;;;;18.72;73.37;98940.36;79301;1294;3013013;-63
2023/06/16 02:32:43;;;;;;;9.80;4.30;;;;;;;18.49;74.61;98941.14;80656;1294;3053227;-63
2023/06/16 02:35:10;;;;;;;13.70;4.40;;;;;;;18.28;75.41;98941.88;81958;1297;3012527;-62
2023/06/16 02:37:36;;;;;;;4.20;2.50;;;;;;;18.22;75.87;98944.78;81994;1295;3011204;-63
2023/06/16 02:40:05;;;;;;;7.40;3.10;;;;;;;18.61;74.81;98945.59;80679;1297;3070602;-63
2023/06/16 02:42:32;;;;;;;10.80;3.30;;;;;;;19.01;73.22;98947.15;81958;1296;3012782;-62
2023/06/16 02:44:59;;;;;;;6.40;3.50;;;;;;;19.20;72.40;98945.89;81942;1297;3011068;-62
2023/06/16 02:47:28;;;;;;;9.70;3.80;;;;;;;19.16;72.52;98943.92;80640;1297;3052717;-63
2023/06/16 02:49:56;;;;;;;7.50;4.20;;;;;;;19.00;72.80;98949.45;81869;1298;3012512;-63
2023/06/16 02:52:22;;;;;;;11.10;4.30;;;;;;;18.80;73.49;98947.16;81887;1297;3011447;-62
2023/06/16 02:54:50;;;;;;;11.30;4.10;;;;;;;18.75;73.77;98957.12;80685;1296;3069243;-62
2023/06/16 02:57:22;;;;;;;7.50;3.50;;;;;;;18.70;73.84;98956.39;81892;1296;3011490;-62
2023/06/16 02:59:50;;;;;;;7.40;3.40;;;;;;;18.68;74.05;98955.40;80670;1296;3056007;-65
2023/06/16 03:02:17;;;;;;;9.50;2.40;;;;;;;18.68;73.97;98952.92;81930;1297;3012822;-66
2023/06/16 03:04:55;;;;;;;6.40;2.70;;;;;;;19.24;72.84;98950.36;80679;1296;3049840;-66
2023/06/16 03:07:25;;;;;;;7.40;2.90;;;;;;;19.77;70.87;98946.30;81875;1296;3011324;-66
2023/06/16 03:09:53;;;;;;;6.40;3.50;;;;;;;19.89;70.54;98949.83;80666;1297;3024759;-64
2023/06/16 03:12:20;;;;;;;9.60;3.30;;;;;;;19.80;70.41;98950.77;81959;1300;3013169;-65
2023/06/16 03:14:56;;;;;;;9.90;4.20;;;;;;;19.70;70.53;98954.31;80607;1296;3056152;-65
2023/06/16 03:17:22;;;;;;;8.50;3.80;;;;;;;19.59;70.95;98954.96;81880;1297;3012794;-67
2023/06/16 03:19:49;;;;;;;8.00;3.60;;;;;;;19.47;71.51;98950.27;81961;1297;3011168;-67
2023/06/16 03:22:20;;;;;;;6.70;3.40;;;;;;;19.37;71.63;98952.48;80633;1298;3053876;-66
2023/06/16 03:24:47;;;;;;;6.00;4.00;;;;;;;19.26;72.22;98952.70;81948;1296;3012848;-64
2023/06/16 03:27:15;;;;;;;9.30;4.30;;;;;;;19.24;72.06;98951.34;81882;1297;3011254;-66
2023/06/16 03:29:53;;;;;;;6.60;3.90;;;;;;;19.21;72.38;98950.04;80664;1296;3056691;-65
2023/06/16 03:32:19;;;;;;;8.60;3.00;;;;;;;19.19;72.53;98950.30;81911;1296;3018552;-64
2023/06/16 03:34:48;;;;;;;8.30;3.80;;;;;;;19.75;71.60;98945.80;81870;1296;3011444;-67
2023/06/16 03:37:16;;;;;;;8.30;3.50;;;;;;;20.35;69.75;98947.87;80615;1297;3051597;-65
2023/06/16 03:39:44;;;;;;;12.50;4.40;;;;;;;20.53;68.89;98947.71;81969;1296;3010960;-68
2023/06/16 03:42:10;;;;;;;10.20;5.00;;;;;;;20.47;68.62;98949.17;81913;1298;3010805;-64
2023/06/16 03:44:40;;;;;;;10.70;5.10;;;;;;;20.39;68.98;98948.58;80651;1296;3056431;-65
2023/06/16 03:47:07;;;;;;;13.10;5.80;;;;;;;20.30;68.99;98946.52;81922;1296;3012662;-69
2023/06/16 03:49:35;;;;;;;18.20;6.00;;;;;;;20.22;69.26;98944.48;81901;1296;3011420;-67
2023/06/16 03:52:03;;;;;;;18.10;6.90;;;;;;;20.13;69.47;98944.30;80674;1300;3051651;-67
2023/06/16 03:54:31;;;;;;;17.90;8.00;;;;;;;20.01;69.87;98944.64;81903;1297;3011433;-68
2023/06/16 03:56:58;;;;;;;15.30;7.50;;;;;;;19.98;69.93;98940.17;81925;1297;3011446;-66
2023/06/16 03:59:27;;;;;;;17.30;8.10;;;;;;;19.94;69.99;98939.65;80644;1297;3056233;-66
2023/06/16 04:01:57;;;;;;;19.30;8.50;;;;;;;19.93;70.10;98938.59;81920;1297;3013257;-68
2023/06/16 04:04:25;;;;;;;17.20;8.60;;;;;;;19.92;69.91;98940.30;80634;1297;3049181;-67
2023/06/16 04:06:52;;;;;;;17.00;8.40;;;;;;;19.93;69.74;98936.30;81922;1297;3011454;-65
2023/06/16 04:09:18;;;;;;;16.50;8.80;;;;;;;19.91;69.97;98933.84;81876;1297;3011387;-65
2023/06/16 04:11:46;;;;;;;10.20;5.80;;;;;;;19.91;70.50;98932.60;80711;1296;3026106;-65
2023/06/16 04:14:13;;;;;;;14.10;6.10;;;;;;;20.46;69.67;98932.08;81904;1296;3018762;-67
2023/06/16 04:16:42;;;;;;;14.30;7.20;;;;;;;20.97;67.49;98931.83;81858;1296;3011211;-65
2023/06/16 04:19:10;;;;;;;12.40;6.50;;;;;;;21.08;66.98;98932.79;80649;1297;3049198;-66
2023/06/16 04:21:37;;;;;;;9.80;6.20;;;;;;;20.97;66.67;98926.68;81878;1298;3012820;-67
2023/06/16 04:24:04;;;;;;;10.40;5.70;;;;;;;20.82;66.92;98928.10;81833;1301;3011431;-66
2023/06/16 04:26:32;;;;;;;6.60;4.20;;;;;;;20.68;67.03;98923.34;80604;1297;3026904;-67
2023/06/16 04:29:03;;;;;;;12.50;4.80;;;;;;;20.66;67.56;98930.44;81927;1301;3011223;-66
2023/06/16 04:31:35;;;;;;;16.00;5.30;;;;;;;20.55;67.88;98930.96;80628;1296;3050316;-66
2023/06/16 04:34:05;;;;;;;12.60;4.40;;;;;;;20.50;67.98;98931.14;81927;1296;3011133;-67
2023/06/16 04:36:35;;;;;;;10.90;4.20;;;;;;;20.38;68.49;98929.80;80651;1296;3050476;-65
2023/06/16 04:39:08;;;;;;;7.70;4.00;;;;;;;20.28;68.97;98930.02;81880;1296;3011164;-65
2023/06/16 04:41:36;;;;;;;8.60;4.00;;;;;;;20.26;68.82;98924.17;80673;1297;3051927;-65
2023/06/16 04:44:03;;;;;;;8.90;3.90;;;;;;;20.26;68.95;98920.61;81896;1297;3018537;-69
2023/06/16 04:46:30;;;;;;;8.70;4.20;;;;;;;20.24;68.86;98919.25;81890;1297;3011335;-68
2023/06/16 04:48:58;;;;;;;7.10;3.70;;;;;;;20.29;68.89;98921.20;80699;1295;3025163;-66
2023/06/16 04:51:26;;;;;;;9.40;3.80;;;;;;;20.35;68.89;98921.64;81885;1300;3011324;-69
2023/06/16 04:53:53;;;;;;;8.50;4.10;;;;;;;20.26;68.32;98923.77;81901;1295;3011429;-67
2023/06/16 04:56:21;;;;;;;5.80;3.50;;;;;;;20.19;69.20;98928.49;80681;1297;3052662;-69
2023/06/16 04:58:48;;;;;;;13.30;4.00;;;;;;;20.31;69.01;98923.27;81987;1296;3018420;-67
2023/06/16 05:01:14;;;;;;;10.00;3.90;;;;;;;20.43;68.40;98921.63;81900;1295;3011266;-68
2023/06/16 05:03:43;;;;;;;10.50;4.40;;;;;;;20.43;68.13;98919.12;80610;1297;3025484;-66
2023/06/16 05:06:10;;;;;;;14.80;4.20;;;;;;;20.39;68.08;98922.41;81906;1297;3013081;-65
2023/06/16 05:08:37;;;;;;;9.90;4.20;;;;;;;20.33;68.02;98915.71;81890;1296;3011707;-65
2023/06/16 05:11:05;;;;;;;11.40;4.10;;;;;;;20.39;67.94;98920.42;80652;1298;3051994;-66
2023/06/16 05:13:33;;;;;;;6.60;3.90;;;;;;;20.45;67.74;98921.05;81876;1297;3012631;-65
2023/06/16 05:15:59;;;;;;;12.00;4.20;;;;;;;20.38;67.78;98922.37;81888;1297;3011122;-65
2023/06/16 05:18:27;;;;;;;10.00;4.60;;;;;;;20.26;67.97;98922.31;80666;1296;3049968;-65
2023/06/16 05:20:54;;;;;;;13.30;4.20;;;;;;;20.34;68.05;98918.33;81920;1296;3017998;-65
2023/06/16 05:23:21;;;;;;;11.20;4.10;;;;;;;20.34;68.00;98923.51;81877;1296;3011334;-65
2023/06/16 05:25:49;;;;;;;5.80;3.20;;;;;;;20.39;67.78;98922.41;80671;1300;3025785;-64
2023/06/16 05:28:16;;;;;;;10.10;3.80;;;;;;;20.46;67.41;98922.15;81943;1296;3011194;-64
2023/06/16 05:30:43;;;;;;;11.40;4.30;;;;;;;20.48;67.79;98924.05;81863;1297;3011381;-65
2023/06/16 05:33:11;;;;;;;12.20;3.70;;;;;;;20.42;68.51;98929.03;80670;1296;3026508;-68
2023/06/16 05:35:38;;;;;;;8.50;4.00;;;;;;;20.37;68.76;98924.17;81916;1297;3018424;-65
2023/06/16 05:38:04;;;;;;;8.70;3.70;;;;;;;20.50;68.70;98917.61;81896;1298;3010938;-64
2023/06/16 05:40:32;;;;;;;13.00;3.60;;;;;;;20.51;68.07;98917.41;80633;1300;3026420;-65
2023/06/16 05:42:59;;;;;;;10.20;4.10;;;;;;;20.47;68.26;98915.64;81913;1297;3012806;-65
2023/06/16 05:45:26;;;;;;;12.20;4.00;;;;;;;20.56;68.36;98916.92;81857;1297;3011117;-64
2023/06/16 05:47:54;;;;;;;7.40;3.50;;;;;;;20.56;67.61;98919.39;80736;1297;3026814;-64
2023/06/16 05:50:21;;;;;;;10.70;4.10;;;;;;;20.59;67.51;98920.36;81879;1297;3012580;-65
2023/06/16 05:52:47;;;;;;;7.70;4.10;;;;;;;20.50;67.79;98927.73;81910;1297;3011555;-64
2023/06/16 05:55:15;;;;;;;10.00;4.20;;;;;;;20.48;69.02;98924.40;80669;1297;3026793;-65
2023/06/16 05:57:47;;;;;;;;;;;;;;;20.60;69.08;98923.63;81904;1300;3011104;-65
2023/06/16 06:00:15;;;;;;;12.60;4.40;;;;;;;20.64;69.50;98921.73;80640;1296;3052417;-65
2023/06/16 06:02:45;;;;;;;4.50;2.50;;;;;;;20.86;69.66;98920.25;81913;1300;3011467;-65
2023/06/16 06:05:24;;;;;;;5.50;3.10;;;;;;;21.60;66.98;98921.43;80628;1297;3048460;-65
2023/06/16 06:07:51;;;;;;;8.10;3.50;;;;;;;22.07;65.24;98916.77;81907;1300;3012517;-65
2023/06/16 06:10:17;;;;;;;11.30;3.20;;;;;;;22.20;65.28;98912.71;81873;1296;3011427;-65
2023/06/16 06:12:46;;;;;;;6.90;3.40;;;;;;;22.13;65.35;98909.27;80592;1297;3052929;-65
2023/06/16 06:15:13;;;;;;;7.40;3.20;;;;;;;21.92;64.54;98907.05;81973;1296;3011747;-65
2023/06/16 06:17:39;;;;;;;8.50;3.10;;;;;;;21.68;64.86;98909.42;81857;1297;3011221;-65
2023/06/16 06:20:09;;;;;;;5.40;2.70;;;;;;;21.69;64.25;98909.96;80674;1297;3026843;-64
2023/06/16 06:22:35;;;;;;;7.40;2.60;;;;;;;21.64;64.53;98907.49;81914;1296;3013159;-64
2023/06/16 06:25:04;;;;;;;9.60;3.40;;;;;;;21.68;64.37;98904.73;81897;1298;3011425;-64
2023/06/16 06:27:33;;;;;;;5.70;3.10;;;;;;;21.77;64.03;98907.40;80761;1295;3054404;-65
2023/06/16 06:29:59;;;;;;;7.10;3.00;;;;;;;21.76;63.67;98911.26;81950;1297;3011154;-66
2023/06/16 06:32:26;;;;;;;10.00;3.10;;;;;;;21.82;63.53;98903.08;81969;1295;3011295;-65
2023/06/16 06:34:54;;;;;;;7.40;3.10;;;;;;;21.92;63.33;98899.39;80765;1296;3026938;-64
2023/06/16 06:37:29;;;;;;;6.90;3.20;;;;;;;22.07;62.13;98897.13;81928;1297;3012825;-66
2023/06/16 06:39:56;;;;;;;7.60;2.60;;;;;;;22.17;61.28;98899.36;80657;1297;3052528;-65
2023/06/16 06:42:26;;;;;;;5.00;2.60;;;;;;;22.25;60.68;98897.19;81921;1300;3012556;-64
2023/06/16 06:44:56;;;;;;;7.20;2.90;;;;;;;22.30;59.72;98896.19;80682;1296;3051896;-67
2023/06/16 06:47:23;;;;;;;7.30;2.90;;;;;;;22.43;59.80;98891.17;81901;1296;3012684;-65
2023/06/16 06:49:54;;;;;;;5.70;2.60;;;;;;;22.53;59.95;98889.67;81320;1296;3011347;-65
2023/06/16 06:52:21;;;;;;;10.30;3.00;;;;;;;22.56;59.46;98888.06;81933;1296;3018785;-66
2023/06/16 06:54:47;;;;;;;7.90;2.90;;;;;;;22.49;58.88;98885.63;81918;1297;3011542;-65
2023/06/16 06:57:15;;;;;;;4.50;2.50;;;;;;;22.54;59.07;98885.16;80634;1296;3027456;-65
2023/06/16 06:59:42;;;;;;;5.90;2.50;;;;;;;22.57;58.52;98888.77;81899;1296;3012800;-65
2023/06/16 07:02:08;;;;;;;7.00;2.90;;;;;;;22.50;57.87;98888.20;81913;1297;3011505;-65
2023/06/16 07:04:38;;;;;;;8.80;3.00;;;;;;;22.63;58.25;98884.16;80634;1298;3049244;-65
2023/06/16 07:07:05;;;;;;;5.60;2.90;;;;;;;22.50;57.49;98887.45;81918;1295;3012488;-64
2023/06/16 07:09:36;;;;;;;6.90;2.60;;;;;;;22.51;57.90;98885.94;81327;1296;3011328;-65
2023/06/16 07:12:02;;;;;;;7.30;2.70;;;;;;;22.67;57.72;98881.88;81958;1297;3013082;-64
2023/06/16 07:14:30;;;;;;;10.90;2.60;;;;;;;22.87;57.97;98884.68;81918;1300;3011234;-66
2023/06/16 07:20:26;;;;;;;5.10;2.80;;;;;;;23.14;56.50;98889.02;80536;1299;3013367;-65
2023/06/16 07:22:53;;;;;;;4.30;2.50;;;;;;;23.21;56.12;98890.17;79352;1303;3018939;-66
2023/06/16 07:25:19;;;;;;;11.90;2.70;;;;;;;23.38;56.17;98889.50;79538;1302;3011600;-66
2023/06/16 07:27:47;;;;;;;7.30;2.60;;;;;;;23.38;55.51;98886.83;78312;1305;3028765;-66
2023/06/16 07:30:14;;;;;;;7.70;2.70;;;;;;;23.47;55.50;98888.52;79572;1302;3012986;-66
2023/06/16 07:32:42;;;;;;;6.60;2.60;;;;;;;23.54;55.29;98889.45;77822;1306;5854943;-65
2023/06/16 07:35:11;;;;;;;8.70;2.90;;;;;;;23.53;54.62;98886.06;78577;1301;3049367;-66
2023/06/16 07:37:38;;;;;;;6.40;2.60;;;;;;;23.37;54.31;98890.20;79693;1302;3014064;-65
2023/06/16 07:40:08;;;;;;;7.60;2.60;;;;;;;23.36;54.38;98890.02;79658;1301;3011638;-66
2023/06/16 07:42:36;;;;;;;9.90;2.20;;;;;;;23.43;54.23;98888.19;78570;1298;3051525;-66
2023/06/16 07:45:03;;;;;;;5.60;2.70;;;;;;;23.41;54.46;98887.48;79478;1299;3018516;-66
2023/06/16 07:47:29;;;;;;;8.60;2.70;;;;;;;23.53;54.57;98890.02;79460;1300;3011529;-65
2023/06/16 07:49:57;;;;;;;6.60;3.10;;;;;;;23.64;54.62;98879.81;78223;1298;3026878;-66
2023/06/16 07:52:24;;;;;;;6.10;2.70;;;;;;;23.75;54.91;98878.11;79437;1302;3012775;-66
2023/06/16 07:54:50;;;;;;;10.40;2.70;;;;;;;23.77;53.75;98882.48;79584;1301;3011590;-66
2023/06/16 07:57:18;;;;;;;11.40;2.80;;;;;;;23.71;53.70;98875.42;78454;1300;3028792;-66
2023/06/16 07:59:45;;;;;;;7.50;2.60;;;;;;;23.79;53.90;98876.77;79341;1295;3013190;-66
2023/06/16 08:02:11;;;;;;;5.50;2.60;;;;;;;23.97;53.80;98880.23;79482;1298;3013232;-66
2023/06/16 08:04:39;;;;;;;10.50;3.10;;;;;;;23.86;53.51;98881.29;78475;1298;3028579;-65
2023/06/16 08:07:06;;;;;;;4.50;2.40;;;;;;;23.83;53.44;98880.77;79708;1293;3014514;-67
2023/06/16 08:09:35;;;;;;;9.90;2.90;;;;;;;23.85;53.53;98877.48;79723;1297;3011748;-67
2023/06/16 08:12:04;;;;;;;7.90;2.70;;;;;;;23.95;53.33;98880.85;78324;1298;3052436;-66
2023/06/16 08:14:32;;;;;;;7.20;2.40;;;;;;;23.76;52.23;98883.95;79746;1297;3011810;-66
2023/06/16 08:17:02;;;;;;;6.60;2.60;;;;;;;23.76;52.12;98880.91;79197;1294;3011894;-65
2023/06/16 08:19:29;;;;;;;6.50;2.80;;;;;;;23.84;52.55;98881.82;79748;1298;3013294;-65
2023/06/16 08:21:56;;;;;;;5.80;2.50;;;;;;;24.17;52.85;98880.27;79736;1297;3011860;-65
2023/06/16 08:24:24;;;;;;;10.30;2.70;;;;;;;24.32;52.19;98878.11;78499;1297;3049681;-65
2023/06/16 08:26:50;;;;;;;10.60;2.40;;;;;;;24.28;51.43;98879.77;79723;1298;3013649;-66
2023/06/16 08:29:19;;;;;;;6.60;2.50;;;;;;;24.26;52.03;98879.10;79648;1297;3013243;-65
2023/06/16 08:31:48;;;;;;;9.50;3.40;;;;;;;24.25;52.00;98879.91;78328;1299;3050211;-65
2023/06/16 08:34:15;;;;;;;6.40;2.60;;;;;;;24.26;51.96;98880.66;79539;1297;3013198;-65
2023/06/16 08:36:41;;;;;;;9.20;2.60;;;;;;;24.41;52.07;98870.60;79346;1294;3011849;-66
2023/06/16 08:39:09;;;;;;;6.30;2.50;;;;;;;24.62;51.69;98872.55;78238;1298;3049992;-66
2023/06/16 08:41:37;;;;;;;6.40;2.40;;;;;;;24.81;51.01;98870.80;79799;1299;3013228;-65
2023/06/16 08:44:04;;;;;;;6.60;2.30;;;;;;;24.92;50.58;98876.63;79865;1302;3011349;-65
2023/06/16 08:46:32;;;;;;;7.90;2.30;;;;;;;24.72;50.17;98874.64;78200;1302;3027939;-66
2023/06/16 08:48:58;;;;;;;7.00;2.40;;;;;;;24.85;50.17;98868.71;79474;1298;3011540;-66
2023/06/16 08:51:26;;;;;;;9.50;2.40;;;;;;;24.82;50.01;98872.45;79425;1298;3011862;-66
2023/06/16 08:54:00;;;;;;;7.00;2.30;;;;;;;24.81;49.30;98867.95;78441;1296;3050080;-65
2023/06/16 08:56:29;;;;;;;6.30;2.20;;;;;;;25.03;49.03;98853.92;79489;1298;3011654;-65
2023/06/16 08:58:57;;;;;;;3.80;2.10;;;;;;;25.16;49.23;98854.46;78420;1299;3052163;-66
2023/06/16 09:01:25;;;;;;;14.50;2.30;;;;;;;25.29;48.85;98851.52;79616;1296;3012908;-66
2023/06/16 09:03:52;;;;;;;6.20;2.80;;;;;;;25.46;49.01;98855.49;79554;1299;3011847;-67
2023/06/16 09:06:19;;;;;;;6.90;2.80;;;;;;;24.97;48.63;98869.06;78420;1299;3048479;-66
2023/06/16 09:08:46;;;;;;;12.80;2.70;;;;;;;24.64;49.35;98860.27;79639;1294;3013544;-66
2023/06/16 09:11:21;;;;;;;6.80;2.40;;;;;;;24.58;49.10;98864.13;79526;1295;3011601;-67
2023/06/16 09:13:51;;;;;;;7.70;2.00;;;;;;;24.60;49.35;98857.95;78178;1297;3053137;-66
2023/06/16 09:16:20;;;;;;;6.80;1.90;;;;;;;24.92;49.24;98857.04;79663;1299;3011601;-66
2023/06/16 09:18:49;;;;;;;12.10;2.40;;;;;;;25.18;48.65;98851.33;78406;1300;3050788;-67
2023/06/16 09:21:20;;;;;;;6.70;2.50;;;;;;;25.41;48.11;98854.91;79468;1296;3014825;-64
2023/06/16 09:23:56;;;;;;;7.80;3.00;;;;;;;25.32;48.08;98855.50;78195;1298;3052573;-66
2023/06/16 09:26:29;;;;;;;10.10;2.80;;;;;;;25.38;48.66;98854.91;78355;1308;3049869;-65
2023/06/16 09:28:56;;;;;;;10.40;2.50;;;;;;;25.22;49.06;98857.04;79855;1301;3011553;-67
2023/06/16 09:31:27;;;;;;;7.50;2.80;;;;;;;25.10;49.03;98855.52;78555;1301;3054749;-65
2023/06/16 09:33:53;;;;;;;8.50;2.20;;;;;;;25.00;49.33;98863.33;79448;1294;3013307;-64
2023/06/16 09:36:26;;;;;;;7.00;2.40;;;;;;;24.90;49.04;98855.70;78750;1296;3013687;-65
2023/06/16 09:38:53;;;;;;;5.10;2.40;;;;;;;25.13;48.99;98862.98;79730;1295;3011903;-65
2023/06/16 09:41:22;;;;;;;5.20;2.30;;;;;;;25.16;48.84;98858.52;79239;1292;3011720;-66
2023/06/16 09:43:49;;;;;;;10.50;2.50;;;;;;;25.35;47.80;98853.82;79453;1294;3014913;-66
2023/06/16 09:46:16;;;;;;;9.10;2.30;;;;;;;25.48;47.50;98856.33;79527;1295;3011705;-66
2023/06/16 09:48:48;;;;;;;10.20;2.50;;;;;;;25.60;46.85;98848.23;78288;1301;3025901;-66
2023/06/16 09:51:23;;;;;;;8.30;2.20;;;;;;;25.94;46.55;98850.57;82103;1295;3011135;-66
2023/06/16 09:53:51;;;;;;;7.20;2.30;;;;;;;26.09;46.36;98853.63;80875;1293;3050943;-64
2023/06/16 09:56:18;;;;;;;6.60;2.50;;;;;;;25.76;46.96;98849.07;81984;1292;3012817;-61
2023/06/16 09:58:47;;;;;;;7.60;2.30;;;;;;;25.93;46.49;98847.45;82104;1295;3011415;-62
2023/06/16 10:01:16;;;;;;;6.90;2.30;;;;;;;26.13;45.73;98841.71;80892;1292;3049413;-65
2023/06/16 10:03:44;;;;;;;10.50;2.10;;;;;;;26.02;44.54;98840.34;82139;1294;3012408;-63
2023/06/16 10:06:14;;;;;;;4.30;2.20;;;;;;;26.02;44.36;98843.08;82055;1295;3011344;-62
2023/06/16 10:08:42;;;;;;;8.10;2.20;;;;;;;26.37;44.92;98832.20;80761;1295;3050637;-59
2023/06/16 10:11:10;;;;;;;6.40;2.10;;;;;;;26.69;44.28;98839.29;82086;1294;3018075;-63
2023/06/16 10:13:38;;;;;;;6.70;2.10;;;;;;;26.91;43.11;98843.68;82113;1292;3011452;-63
2023/06/16 10:16:05;;;;;;;8.70;2.20;;;;;;;26.76;43.20;98840.02;80786;1295;3049324;-62
2023/06/16 10:18:32;;;;;;;5.60;2.30;;;;;;;26.92;43.06;98832.90;81984;1295;3013093;-64
2023/06/16 10:20:59;;;;;;;9.20;2.20;;;;;;;27.21;42.68;98836.39;81928;1299;3011091;-61
2023/06/16 10:23:27;;;;;;;6.10;2.00;;;;;;;27.16;42.71;98833.89;80645;1295;3025950;-62
2023/06/16 10:25:53;;;;;;;4.40;2.10;;;;;;;27.36;42.24;98833.11;82063;1295;3018463;-65
2023/06/16 10:28:21;;;;;;;4.50;2.40;;;;;;;27.54;42.60;98834.36;82065;1294;3011426;-62
2023/06/16 10:30:49;;;;;;;10.10;2.30;;;;;;;27.43;42.97;98830.91;80771;1295;3049889;-66
2023/06/16 10:33:26;;;;;;;6.70;2.30;;;;;;;27.37;43.09;98832.52;82011;1296;3018577;-63
2023/06/16 10:35:56;;;;;;;5.40;2.20;;;;;;;26.77;44.26;98835.02;80805;1295;3069406;-65
2023/06/16 10:38:35;;;;;;;7.00;2.10;;;;;;;26.49;45.06;98833.79;82155;1292;3012784;-64
2023/06/16 10:41:03;;;;;;;6.50;2.60;;;;;;;26.27;45.08;98831.08;80866;1294;3056037;-65
2023/06/16 10:43:29;;;;;;;5.70;2.10;;;;;;;26.32;45.13;98822.08;82160;1293;3012798;-64
2023/06/16 10:46:15;;;;;;;6.10;2.10;;;;;;;26.27;45.00;98820.23;81929;1296;3011529;-64
2023/06/16 10:49:04;;;;;;;5.50;2.20;;;;;;;26.21;45.04;98823.84;80789;1295;3051443;-62
2023/06/16 10:51:48;;;;;;;9.50;2.20;;;;;;;25.98;45.79;98828.75;80765;1295;3051979;-63
2023/06/16 10:54:34;;;;;;;4.90;2.00;;;;;;;25.98;45.68;98818.97;80887;1292;3068155;-62
2023/06/16 10:57:03;;;;;;;6.10;2.10;;;;;;;25.81;45.85;98817.45;80842;1293;3051456;-66
2023/06/16 10:59:30;;;;;;;4.90;1.90;;;;;;;25.71;45.59;98814.60;82186;1293;3012948;-64
2023/06/16 11:01:57;;;;;;;8.90;2.20;;;;;;;25.68;45.93;98812.77;82160;1295;3011330;-64
2023/06/16 11:04:26;;;;;;;4.10;2.00;;;;;;;25.61;45.83;98815.71;80851;1297;3048840;-64
2023/06/16 11:07:04;;;;;;;6.20;2.60;;;;;;;25.70;45.72;98814.89;82116;1294;3013684;-61
2023/06/16 11:09:32;;;;;;;5.40;2.30;;;;;;;25.93;45.55;98807.63;80755;1293;3067972;-64
2023/06/16 11:11:59;;;;;;;3.40;2.00;;;;;;;26.02;45.71;98806.39;82164;1292;3018056;-63
2023/06/16 11:14:26;;;;;;;5.60;2.30;;;;;;;26.20;45.04;98806.36;82124;1293;3011429;-63
2023/06/16 11:16:54;;;;;;;4.30;2.20;;;;;;;26.22;44.63;98803.67;80701;1296;3025845;-63
2023/06/16 11:19:21;;;;;;;7.60;2.10;;;;;;;26.15;44.44;98805.58;82104;1295;3012722;-64
2023/06/16 11:21:47;;;;;;;9.40;2.00;;;;;;;26.23;44.84;98804.34;82093;1294;3011190;-65
2023/06/16 11:24:15;;;;;;;6.40;1.90;;;;;;;26.78;43.44;98797.63;80825;1294;3067906;-65
2023/06/16 11:26:42;;;;;;;12.20;2.40;;;;;;;26.96;42.87;98801.24;82090;1294;3011209;-64